Airfield :
LOGIN :

Register | Disclaimer

   EN    FR    IT 

 










Legend :    VFR   Marginal VFR   IFR   Intensive IFR   Very Intensive IFR
Visi :
Ceiling :
>= 8 km
>= 3000ft
5 to 8 km
1000 to 3000 ft
1500m to 5 km
500 to 1000 ft
800 to 1500m
200 to 500 ft
< 800m
< 200 ft
Symbols :   Thunderstorms  Fog  Heavy snow  Heavy precipitations  Wind > 20 kt
SIGMETs :     Misc.  Thunderstorms  Icing  Turbulence  Mountain Waves  Volcanic Ashes







- Airport Elevation : 502 ft
- IATA code : ORK


EICK - Cork

CURRENT METAR :
  • 191630Z 20010KT 9999 -RA BKN003 BKN006 13/13 Q1018 TEMPO 4000

EXPIRED METARs :
  • 191600Z 20012KT 9999 BKN007 BKN014 14/13 Q1018 TEMPO 5000 BKN005
  • 191530Z 20011KT 9999 BKN006 BKN012 14/13 Q1018 TEMPO 5000 BKN005
  • 191500Z 20012KT 9999 BKN006 BKN012 14/13 Q1018 TEMPO 5000 BKN005
  • 191430Z 19010KT 9999 BKN008 BKN016 14/13 Q1019 TEMPO 5000 BKN005
  • 191400Z 19011KT 9999 BKN008 BKN016 15/13 Q1019 TEMPO 5000 BKN005

TAF TAF EICK
Valid from the 19 at 12:00 until the 20 at 12:00 UTC


191100Z 1912/2012 18012KT 9999 BKN007
TEMPO 1914/1918 4000 -DZ BKN003
BECMG 1918/1921 4000 -RADZ BR BKN003
TEMPO 1921/2011 0300 FG -RADZ OVC001
BECMG 2011/2012 32012KT 8000 BKN007
No reported NOTAMs for that airfield.



MET'MAP, your aeronautical weather chart ! - Copyright ORBIFLY December 2007 - Disclaimer

ORBIFLY MET'MAP TEAM :

Programming & Development : Alexandra Zaïnal
Concept & Development : Baudouin d'Aumeries
Co-Development & Prog : Marc-Olivier Méhu
Technical & hardware support : Manuel Goepfert

Contact : metmap@orbifly.com




SOURCES & CREDITS :

   NOAA